sensor_id;sensor_type;location;lat;lon;timestamp;P1;durP1;ratioP1;P2;durP2;ratioP2
30553;SDS011;17335;50.720;7.452;2022-11-15T00:00:53;19.75;;;9.82;;
30553;SDS011;17335;50.720;7.452;2022-11-15T00:03:20;14.80;;;8.93;;
30553;SDS011;17335;50.720;7.452;2022-11-15T00:05:50;16.85;;;9.27;;
30553;SDS011;17335;50.720;7.452;2022-11-15T00:08:17;17.42;;;9.40;;
30553;SDS011;17335;50.720;7.452;2022-11-15T00:10:53;18.30;;;9.48;;
30553;SDS011;17335;50.720;7.452;2022-11-15T00:13:23;16.67;;;8.82;;
30553;SDS011;17335;50.720;7.452;2022-11-15T00:15:50;19.70;;;9.40;;
30553;SDS011;17335;50.720;7.452;2022-11-15T00:18:17;18.50;;;9.45;;
30553;SDS011;17335;50.720;7.452;2022-11-15T00:20:43;18.27;;;8.90;;
30553;SDS011;17335;50.720;7.452;2022-11-15T00:23:10;20.95;;;9.27;;
30553;SDS011;17335;50.720;7.452;2022-11-15T00:25:37;19.98;;;8.88;;
30553;SDS011;17335;50.720;7.452;2022-11-15T00:28:03;17.98;;;8.68;;
30553;SDS011;17335;50.720;7.452;2022-11-15T00:30:30;16.92;;;8.27;;
30553;SDS011;17335;50.720;7.452;2022-11-15T00:32:56;18.08;;;9.25;;
30553;SDS011;17335;50.720;7.452;2022-11-15T00:35:28;17.67;;;9.15;;
30553;SDS011;17335;50.720;7.452;2022-11-15T00:37:54;18.77;;;8.55;;
30553;SDS011;17335;50.720;7.452;2022-11-15T00:40:21;16.00;;;8.63;;
30553;SDS011;17335;50.720;7.452;2022-11-15T00:42:47;15.38;;;8.23;;
30553;SDS011;17335;50.720;7.452;2022-11-15T00:45:14;16.40;;;8.73;;
30553;SDS011;17335;50.720;7.452;2022-11-15T00:47:40;16.25;;;8.60;;
30553;SDS011;17335;50.720;7.452;2022-11-15T00:50:09;13.95;;;8.07;;
30553;SDS011;17335;50.720;7.452;2022-11-15T00:52:40;15.95;;;7.93;;
30553;SDS011;17335;50.720;7.452;2022-11-15T00:55:08;14.88;;;7.97;;
30553;SDS011;17335;50.720;7.452;2022-11-15T00:57:41;17.20;;;7.95;;
30553;SDS011;17335;50.720;7.452;2022-11-15T01:00:07;18.73;;;8.07;;
30553;SDS011;17335;50.720;7.452;2022-11-15T01:02:34;14.32;;;7.32;;
30553;SDS011;17335;50.720;7.452;2022-11-15T01:05:01;16.73;;;7.55;;
30553;SDS011;17335;50.720;7.452;2022-11-15T01:07:28;20.95;;;7.80;;
30553;SDS011;17335;50.720;7.452;2022-11-15T01:09:54;17.38;;;8.10;;
30553;SDS011;17335;50.720;7.452;2022-11-15T01:12:21;15.75;;;7.88;;
30553;SDS011;17335;50.720;7.452;2022-11-15T01:14:47;14.88;;;7.65;;
30553;SDS011;17335;50.720;7.452;2022-11-15T01:17:15;15.90;;;7.38;;
30553;SDS011;17335;50.720;7.452;2022-11-15T01:19:42;13.48;;;7.20;;
30553;SDS011;17335;50.720;7.452;2022-11-15T01:22:08;16.63;;;8.10;;
30553;SDS011;17335;50.720;7.452;2022-11-15T01:24:34;15.93;;;7.18;;
30553;SDS011;17335;50.720;7.452;2022-11-15T01:27:01;12.30;;;7.05;;
30553;SDS011;17335;50.720;7.452;2022-11-15T01:29:28;16.10;;;8.00;;
30553;SDS011;17335;50.720;7.452;2022-11-15T01:31:54;22.27;;;9.00;;
30553;SDS011;17335;50.720;7.452;2022-11-15T01:34:21;16.30;;;8.57;;
30553;SDS011;17335;50.720;7.452;2022-11-15T01:36:47;16.58;;;7.90;;
30553;SDS011;17335;50.720;7.452;2022-11-15T01:39:14;21.67;;;8.45;;
30553;SDS011;17335;50.720;7.452;2022-11-15T01:41:41;24.98;;;10.15;;
30553;SDS011;17335;50.720;7.452;2022-11-15T01:49:50;16.10;;;7.63;;
30553;SDS011;17335;50.720;7.452;2022-11-15T01:52:22;17.83;;;8.07;;
30553;SDS011;17335;50.720;7.452;2022-11-15T01:57:33;19.67;;;8.43;;
30553;SDS011;17335;50.720;7.452;2022-11-15T02:00:00;12.68;;;6.70;;
30553;SDS011;17335;50.720;7.452;2022-11-15T02:02:29;15.93;;;7.40;;
30553;SDS011;17335;50.720;7.452;2022-11-15T02:04:56;11.50;;;6.65;;
30553;SDS011;17335;50.720;7.452;2022-11-15T02:07:22;11.25;;;5.80;;
30553;SDS011;17335;50.720;7.452;2022-11-15T02:09:49;15.80;;;7.18;;
30553;SDS011;17335;50.720;7.452;2022-11-15T02:12:19;17.02;;;7.85;;
30553;SDS011;17335;50.720;7.452;2022-11-15T02:14:50;17.25;;;7.75;;
30553;SDS011;17335;50.720;7.452;2022-11-15T02:20:30;14.50;;;7.43;;
30553;SDS011;17335;50.720;7.452;2022-11-15T02:29:05;17.70;;;7.40;;
30553;SDS011;17335;50.720;7.452;2022-11-15T02:31:55;16.42;;;7.78;;
30553;SDS011;17335;50.720;7.452;2022-11-15T02:39:48;13.18;;;7.03;;
30553;SDS011;17335;50.720;7.452;2022-11-15T02:42:39;12.65;;;6.93;;
30553;SDS011;17335;50.720;7.452;2022-11-15T02:45:36;12.52;;;6.40;;
30553;SDS011;17335;50.720;7.452;2022-11-15T02:48:07;14.35;;;6.78;;
30553;SDS011;17335;50.720;7.452;2022-11-15T02:50:36;12.50;;;7.25;;
30553;SDS011;17335;50.720;7.452;2022-11-15T02:53:02;13.00;;;7.28;;
30553;SDS011;17335;50.720;7.452;2022-11-15T03:00:47;13.98;;;6.68;;
30553;SDS011;17335;50.720;7.452;2022-11-15T03:03:27;12.85;;;6.15;;
30553;SDS011;17335;50.720;7.452;2022-11-15T03:06:05;10.52;;;6.03;;
30553;SDS011;17335;50.720;7.452;2022-11-15T03:08:40;11.88;;;6.85;;
30553;SDS011;17335;50.720;7.452;2022-11-15T03:11:21;13.40;;;6.88;;
30553;SDS011;17335;50.720;7.452;2022-11-15T03:14:13;13.90;;;7.18;;
30553;SDS011;17335;50.720;7.452;2022-11-15T03:19:22;11.45;;;6.18;;
30553;SDS011;17335;50.720;7.452;2022-11-15T03:21:56;12.05;;;7.05;;
30553;SDS011;17335;50.720;7.452;2022-11-15T03:24:28;13.13;;;7.30;;
30553;SDS011;17335;50.720;7.452;2022-11-15T03:26:56;11.65;;;7.00;;
30553;SDS011;17335;50.720;7.452;2022-11-15T03:29:27;13.90;;;6.63;;
30553;SDS011;17335;50.720;7.452;2022-11-15T03:32:01;10.52;;;6.53;;
30553;SDS011;17335;50.720;7.452;2022-11-15T03:37:13;13.10;;;6.47;;
30553;SDS011;17335;50.720;7.452;2022-11-15T03:39:42;9.88;;;6.18;;
30553;SDS011;17335;50.720;7.452;2022-11-15T03:42:22;11.05;;;6.10;;
30553;SDS011;17335;50.720;7.452;2022-11-15T03:44:57;11.25;;;5.70;;
30553;SDS011;17335;50.720;7.452;2022-11-15T03:47:32;14.05;;;6.18;;
30553;SDS011;17335;50.720;7.452;2022-11-15T03:50:10;11.35;;;5.93;;
30553;SDS011;17335;50.720;7.452;2022-11-15T03:52:46;9.55;;;6.03;;
30553;SDS011;17335;50.720;7.452;2022-11-15T03:55:18;10.70;;;5.25;;
30553;SDS011;17335;50.720;7.452;2022-11-15T03:57:50;10.13;;;5.15;;
30553;SDS011;17335;50.720;7.452;2022-11-15T04:00:19;10.65;;;6.13;;
30553;SDS011;17335;50.720;7.452;2022-11-15T04:02:45;14.35;;;6.35;;
30553;SDS011;17335;50.720;7.452;2022-11-15T04:05:12;10.85;;;5.75;;
30553;SDS011;17335;50.720;7.452;2022-11-15T04:07:38;12.65;;;5.00;;
30553;SDS011;17335;50.720;7.452;2022-11-15T04:10:05;12.63;;;5.72;;
30553;SDS011;17335;50.720;7.452;2022-11-15T04:12:33;9.95;;;5.05;;
30553;SDS011;17335;50.720;7.452;2022-11-15T04:15:06;9.45;;;5.25;;
30553;SDS011;17335;50.720;7.452;2022-11-15T04:20:05;9.63;;;5.72;;
30553;SDS011;17335;50.720;7.452;2022-11-15T04:22:53;9.50;;;5.45;;
30553;SDS011;17335;50.720;7.452;2022-11-15T04:25:39;15.95;;;5.97;;
30553;SDS011;17335;50.720;7.452;2022-11-15T04:28:06;8.63;;;5.10;;
30553;SDS011;17335;50.720;7.452;2022-11-15T04:30:32;14.07;;;5.60;;
30553;SDS011;17335;50.720;7.452;2022-11-15T04:32:59;11.27;;;5.30;;
30553;SDS011;17335;50.720;7.452;2022-11-15T04:35:26;13.20;;;5.43;;
30553;SDS011;17335;50.720;7.452;2022-11-15T04:37:53;9.52;;;5.15;;
30553;SDS011;17335;50.720;7.452;2022-11-15T04:40:20;7.72;;;5.10;;
30553;SDS011;17335;50.720;7.452;2022-11-15T04:42:46;10.13;;;4.80;;
30553;SDS011;17335;50.720;7.452;2022-11-15T04:45:13;6.85;;;4.43;;
30553;SDS011;17335;50.720;7.452;2022-11-15T04:47:39;7.68;;;4.75;;
30553;SDS011;17335;50.720;7.452;2022-11-15T04:50:09;8.45;;;5.00;;
30553;SDS011;17335;50.720;7.452;2022-11-15T04:52:42;12.82;;;5.88;;
30553;SDS011;17335;50.720;7.452;2022-11-15T04:55:15;7.95;;;4.35;;
30553;SDS011;17335;50.720;7.452;2022-11-15T04:57:42;9.98;;;4.43;;
30553;SDS011;17335;50.720;7.452;2022-11-15T05:00:10;10.40;;;5.47;;
30553;SDS011;17335;50.720;7.452;2022-11-15T05:02:39;6.35;;;4.15;;
30553;SDS011;17335;50.720;7.452;2022-11-15T05:05:25;8.73;;;4.82;;
30553;SDS011;17335;50.720;7.452;2022-11-15T05:07:51;10.25;;;4.85;;
30553;SDS011;17335;50.720;7.452;2022-11-15T05:10:18;9.13;;;4.43;;
30553;SDS011;17335;50.720;7.452;2022-11-15T05:12:44;8.32;;;4.22;;
30553;SDS011;17335;50.720;7.452;2022-11-15T05:15:14;7.50;;;4.63;;
30553;SDS011;17335;50.720;7.452;2022-11-15T05:17:40;7.15;;;4.65;;
30553;SDS011;17335;50.720;7.452;2022-11-15T05:20:07;6.82;;;4.30;;
30553;SDS011;17335;50.720;7.452;2022-11-15T05:22:34;8.27;;;4.35;;
30553;SDS011;17335;50.720;7.452;2022-11-15T05:25:00;9.85;;;4.53;;
30553;SDS011;17335;50.720;7.452;2022-11-15T05:27:27;7.97;;;3.80;;
30553;SDS011;17335;50.720;7.452;2022-11-15T05:29:53;6.35;;;3.53;;
30553;SDS011;17335;50.720;7.452;2022-11-15T05:32:19;7.15;;;3.90;;
30553;SDS011;17335;50.720;7.452;2022-11-15T05:34:46;10.82;;;4.00;;
30553;SDS011;17335;50.720;7.452;2022-11-15T05:37:13;10.20;;;3.53;;
30553;SDS011;17335;50.720;7.452;2022-11-15T05:39:40;6.03;;;3.50;;
30553;SDS011;17335;50.720;7.452;2022-11-15T05:42:08;12.02;;;3.72;;
30553;SDS011;17335;50.720;7.452;2022-11-15T05:44:37;6.40;;;3.22;;
30553;SDS011;17335;50.720;7.452;2022-11-15T05:47:08;7.15;;;3.28;;
30553;SDS011;17335;50.720;7.452;2022-11-15T05:49:37;8.40;;;3.30;;
30553;SDS011;17335;50.720;7.452;2022-11-15T05:52:07;7.45;;;3.40;;
30553;SDS011;17335;50.720;7.452;2022-11-15T05:54:38;7.60;;;3.50;;
30553;SDS011;17335;50.720;7.452;2022-11-15T05:57:05;6.65;;;3.13;;
30553;SDS011;17335;50.720;7.452;2022-11-15T05:59:32;7.78;;;3.20;;
30553;SDS011;17335;50.720;7.452;2022-11-15T06:01:59;4.90;;;2.72;;
30553;SDS011;17335;50.720;7.452;2022-11-15T06:04:26;6.38;;;2.80;;
30553;SDS011;17335;50.720;7.452;2022-11-15T06:06:53;6.32;;;2.72;;
30553;SDS011;17335;50.720;7.452;2022-11-15T06:09:19;4.28;;;2.38;;
30553;SDS011;17335;50.720;7.452;2022-11-15T06:11:46;4.40;;;2.40;;
30553;SDS011;17335;50.720;7.452;2022-11-15T06:14:14;4.40;;;2.63;;
30553;SDS011;17335;50.720;7.452;2022-11-15T06:16:40;5.00;;;2.80;;
30553;SDS011;17335;50.720;7.452;2022-11-15T06:19:07;5.32;;;2.58;;
30553;SDS011;17335;50.720;7.452;2022-11-15T06:21:33;5.60;;;2.50;;
30553;SDS011;17335;50.720;7.452;2022-11-15T06:24:00;6.97;;;2.20;;
30553;SDS011;17335;50.720;7.452;2022-11-15T06:26:26;4.63;;;2.42;;
30553;SDS011;17335;50.720;7.452;2022-11-15T06:28:53;5.07;;;2.45;;
30553;SDS011;17335;50.720;7.452;2022-11-15T06:31:19;3.10;;;1.85;;
30553;SDS011;17335;50.720;7.452;2022-11-15T06:33:46;6.65;;;2.20;;
30553;SDS011;17335;50.720;7.452;2022-11-15T06:36:13;4.47;;;1.92;;
30553;SDS011;17335;50.720;7.452;2022-11-15T06:38:43;5.28;;;2.47;;
30553;SDS011;17335;50.720;7.452;2022-11-15T06:41:11;4.32;;;2.00;;
30553;SDS011;17335;50.720;7.452;2022-11-15T06:43:38;4.65;;;2.40;;
30553;SDS011;17335;50.720;7.452;2022-11-15T06:46:06;6.00;;;2.17;;
30553;SDS011;17335;50.720;7.452;2022-11-15T06:48:33;4.72;;;2.40;;
30553;SDS011;17335;50.720;7.452;2022-11-15T06:51:01;6.85;;;2.60;;
30553;SDS011;17335;50.720;7.452;2022-11-15T06:53:29;4.18;;;2.42;;
30553;SDS011;17335;50.720;7.452;2022-11-15T06:56:00;4.22;;;2.63;;
30553;SDS011;17335;50.720;7.452;2022-11-15T06:58:28;4.38;;;2.60;;
30553;SDS011;17335;50.720;7.452;2022-11-15T07:01:02;4.00;;;2.35;;
30553;SDS011;17335;50.720;7.452;2022-11-15T07:03:31;4.88;;;2.35;;
30553;SDS011;17335;50.720;7.452;2022-11-15T07:05:58;4.07;;;2.42;;
30553;SDS011;17335;50.720;7.452;2022-11-15T07:08:32;4.93;;;2.65;;
30553;SDS011;17335;50.720;7.452;2022-11-15T07:11:00;3.90;;;2.38;;
30553;SDS011;17335;50.720;7.452;2022-11-15T07:13:29;4.57;;;2.60;;
30553;SDS011;17335;50.720;7.452;2022-11-15T07:16:04;6.97;;;2.90;;
30553;SDS011;17335;50.720;7.452;2022-11-15T07:18:35;4.88;;;2.67;;
30553;SDS011;17335;50.720;7.452;2022-11-15T07:21:03;7.75;;;2.70;;
30553;SDS011;17335;50.720;7.452;2022-11-15T07:23:31;4.28;;;2.58;;
30553;SDS011;17335;50.720;7.452;2022-11-15T07:25:58;4.05;;;2.72;;
30553;SDS011;17335;50.720;7.452;2022-11-15T07:28:26;6.35;;;2.97;;
30553;SDS011;17335;50.720;7.452;2022-11-15T07:30:52;5.10;;;3.03;;
30553;SDS011;17335;50.720;7.452;2022-11-15T07:33:19;6.18;;;2.78;;
30553;SDS011;17335;50.720;7.452;2022-11-15T07:35:46;7.32;;;2.50;;
30553;SDS011;17335;50.720;7.452;2022-11-15T07:38:15;7.53;;;3.00;;
30553;SDS011;17335;50.720;7.452;2022-11-15T07:40:45;6.45;;;3.10;;
30553;SDS011;17335;50.720;7.452;2022-11-15T07:43:13;6.63;;;3.03;;
30553;SDS011;17335;50.720;7.452;2022-11-15T07:45:43;4.65;;;2.67;;
30553;SDS011;17335;50.720;7.452;2022-11-15T07:48:10;5.80;;;3.35;;
30553;SDS011;17335;50.720;7.452;2022-11-15T07:50:40;4.80;;;2.95;;
30553;SDS011;17335;50.720;7.452;2022-11-15T07:53:08;5.85;;;2.95;;
30553;SDS011;17335;50.720;7.452;2022-11-15T07:55:36;6.03;;;3.50;;
30553;SDS011;17335;50.720;7.452;2022-11-15T07:58:03;4.18;;;2.75;;
30553;SDS011;17335;50.720;7.452;2022-11-15T08:00:32;5.70;;;3.38;;
30553;SDS011;17335;50.720;7.452;2022-11-15T08:03:06;6.97;;;3.05;;
30553;SDS011;17335;50.720;7.452;2022-11-15T08:05:34;6.90;;;2.85;;
30553;SDS011;17335;50.720;7.452;2022-11-15T08:08:03;5.40;;;2.80;;
30553;SDS011;17335;50.720;7.452;2022-11-15T08:10:29;6.13;;;2.95;;
30553;SDS011;17335;50.720;7.452;2022-11-15T08:13:01;4.60;;;2.60;;
30553;SDS011;17335;50.720;7.452;2022-11-15T08:15:32;6.03;;;3.20;;
30553;SDS011;17335;50.720;7.452;2022-11-15T08:18:00;5.93;;;2.97;;
30553;SDS011;17335;50.720;7.452;2022-11-15T08:20:29;6.18;;;3.38;;
30553;SDS011;17335;50.720;7.452;2022-11-15T08:22:56;7.05;;;2.72;;
30553;SDS011;17335;50.720;7.452;2022-11-15T08:25:24;5.32;;;2.88;;
30553;SDS011;17335;50.720;7.452;2022-11-15T08:27:55;4.80;;;2.20;;
30553;SDS011;17335;50.720;7.452;2022-11-15T08:30:23;4.95;;;2.67;;
30553;SDS011;17335;50.720;7.452;2022-11-15T08:32:51;6.45;;;2.58;;
30553;SDS011;17335;50.720;7.452;2022-11-15T08:35:19;4.32;;;2.35;;
30553;SDS011;17335;50.720;7.452;2022-11-15T08:37:54;5.22;;;2.35;;
30553;SDS011;17335;50.720;7.452;2022-11-15T08:40:21;5.20;;;2.22;;
30553;SDS011;17335;50.720;7.452;2022-11-15T08:42:49;4.38;;;2.30;;
30553;SDS011;17335;50.720;7.452;2022-11-15T08:45:15;5.97;;;2.05;;
30553;SDS011;17335;50.720;7.452;2022-11-15T08:47:41;4.60;;;2.40;;
30553;SDS011;17335;50.720;7.452;2022-11-15T08:50:08;4.97;;;2.03;;
30553;SDS011;17335;50.720;7.452;2022-11-15T08:52:35;5.03;;;2.30;;
30553;SDS011;17335;50.720;7.452;2022-11-15T08:55:01;5.72;;;2.30;;
30553;SDS011;17335;50.720;7.452;2022-11-15T08:57:28;4.68;;;2.20;;
30553;SDS011;17335;50.720;7.452;2022-11-15T08:59:56;4.85;;;2.10;;
30553;SDS011;17335;50.720;7.452;2022-11-15T09:02:23;5.22;;;2.67;;
30553;SDS011;17335;50.720;7.452;2022-11-15T09:04:50;3.60;;;1.95;;
30553;SDS011;17335;50.720;7.452;2022-11-15T09:07:16;4.00;;;1.92;;
30553;SDS011;17335;50.720;7.452;2022-11-15T09:09:43;3.35;;;2.03;;
30553;SDS011;17335;50.720;7.452;2022-11-15T09:12:09;4.40;;;1.77;;
30553;SDS011;17335;50.720;7.452;2022-11-15T09:14:36;3.22;;;1.67;;
30553;SDS011;17335;50.720;7.452;2022-11-15T09:17:03;2.83;;;1.70;;
30553;SDS011;17335;50.720;7.452;2022-11-15T09:19:30;2.88;;;1.55;;
30553;SDS011;17335;50.720;7.452;2022-11-15T09:21:56;3.47;;;1.70;;
30553;SDS011;17335;50.720;7.452;2022-11-15T09:24:22;5.18;;;1.98;;
30553;SDS011;17335;50.720;7.452;2022-11-15T09:26:50;3.65;;;1.60;;
30553;SDS011;17335;50.720;7.452;2022-11-15T09:29:17;3.38;;;1.70;;
30553;SDS011;17335;50.720;7.452;2022-11-15T09:31:44;2.42;;;1.38;;
30553;SDS011;17335;50.720;7.452;2022-11-15T09:34:11;3.35;;;1.90;;
30553;SDS011;17335;50.720;7.452;2022-11-15T09:36:37;4.28;;;1.95;;
30553;SDS011;17335;50.720;7.452;2022-11-15T09:39:04;4.28;;;1.90;;
30553;SDS011;17335;50.720;7.452;2022-11-15T09:44:12;4.13;;;1.80;;
30553;SDS011;17335;50.720;7.452;2022-11-15T09:47:08;4.45;;;2.03;;
30553;SDS011;17335;50.720;7.452;2022-11-15T09:49:56;3.72;;;1.63;;
30553;SDS011;17335;50.720;7.452;2022-11-15T09:52:25;5.78;;;1.95;;
30553;SDS011;17335;50.720;7.452;2022-11-15T09:54:53;3.47;;;1.88;;
30553;SDS011;17335;50.720;7.452;2022-11-15T09:57:38;5.57;;;1.85;;
30553;SDS011;17335;50.720;7.452;2022-11-15T10:00:21;3.65;;;1.75;;
30553;SDS011;17335;50.720;7.452;2022-11-15T10:03:26;3.83;;;1.90;;
30553;SDS011;17335;50.720;7.452;2022-11-15T10:05:57;5.13;;;1.98;;
30553;SDS011;17335;50.720;7.452;2022-11-15T10:11:36;3.85;;;1.83;;
30553;SDS011;17335;50.720;7.452;2022-11-15T10:14:08;4.20;;;1.30;;
30553;SDS011;17335;50.720;7.452;2022-11-15T10:19:56;6.43;;;1.45;;
30553;SDS011;17335;50.720;7.452;2022-11-15T10:22:46;3.92;;;1.88;;
30553;SDS011;17335;50.720;7.452;2022-11-15T10:25:24;3.40;;;1.83;;
30553;SDS011;17335;50.720;7.452;2022-11-15T10:27:54;5.07;;;1.65;;
30553;SDS011;17335;50.720;7.452;2022-11-15T10:30:59;5.80;;;1.90;;
30553;SDS011;17335;50.720;7.452;2022-11-15T10:41:36;5.65;;;1.30;;
30553;SDS011;17335;50.720;7.452;2022-11-15T10:44:07;5.10;;;1.75;;
30553;SDS011;17335;50.720;7.452;2022-11-15T10:46:48;2.75;;;1.40;;
30553;SDS011;17335;50.720;7.452;2022-11-15T10:49:24;2.42;;;1.20;;
30553;SDS011;17335;50.720;7.452;2022-11-15T10:51:57;3.65;;;1.38;;
30553;SDS011;17335;50.720;7.452;2022-11-15T10:54:34;2.50;;;1.10;;
30553;SDS011;17335;50.720;7.452;2022-11-15T10:57:14;3.08;;;1.17;;
30553;SDS011;17335;50.720;7.452;2022-11-15T10:59:49;2.75;;;1.30;;
30553;SDS011;17335;50.720;7.452;2022-11-15T11:02:29;5.10;;;1.55;;
30553;SDS011;17335;50.720;7.452;2022-11-15T11:04:59;3.47;;;1.20;;
30553;SDS011;17335;50.720;7.452;2022-11-15T11:07:27;2.72;;;1.33;;
30553;SDS011;17335;50.720;7.452;2022-11-15T11:13:15;4.75;;;1.50;;
30553;SDS011;17335;50.720;7.452;2022-11-15T11:15:52;3.78;;;1.50;;
30553;SDS011;17335;50.720;7.452;2022-11-15T11:18:26;4.65;;;1.60;;
30553;SDS011;17335;50.720;7.452;2022-11-15T11:21:02;6.22;;;1.80;;
30553;SDS011;17335;50.720;7.452;2022-11-15T11:23:42;4.55;;;1.85;;
30553;SDS011;17335;50.720;7.452;2022-11-15T11:29:12;3.28;;;2.00;;
30553;SDS011;17335;50.720;7.452;2022-11-15T11:32:03;3.60;;;2.05;;
30553;SDS011;17335;50.720;7.452;2022-11-15T11:37:39;6.85;;;2.35;;
30553;SDS011;17335;50.720;7.452;2022-11-15T11:40:13;5.35;;;2.60;;
30553;SDS011;17335;50.720;7.452;2022-11-15T11:50:47;4.53;;;2.30;;
30553;SDS011;17335;50.720;7.452;2022-11-15T11:53:17;5.35;;;2.75;;
30553;SDS011;17335;50.720;7.452;2022-11-15T11:55:46;4.00;;;2.05;;
30553;SDS011;17335;50.720;7.452;2022-11-15T12:04:01;4.60;;;2.00;;
30553;SDS011;17335;50.720;7.452;2022-11-15T12:06:33;4.63;;;2.22;;
30553;SDS011;17335;50.720;7.452;2022-11-15T12:09:04;4.75;;;2.30;;
30553;SDS011;17335;50.720;7.452;2022-11-15T12:14:24;5.20;;;2.15;;
30553;SDS011;17335;50.720;7.452;2022-11-15T12:16:51;4.18;;;2.30;;
30553;SDS011;17335;50.720;7.452;2022-11-15T12:19:17;4.22;;;2.15;;
30553;SDS011;17335;50.720;7.452;2022-11-15T12:21:59;5.93;;;2.13;;
30553;SDS011;17335;50.720;7.452;2022-11-15T12:24:32;4.78;;;2.22;;
30553;SDS011;17335;50.720;7.452;2022-11-15T12:30:12;3.47;;;1.92;;
30553;SDS011;17335;50.720;7.452;2022-11-15T12:33:00;3.03;;;1.90;;
30553;SDS011;17335;50.720;7.452;2022-11-15T12:35:31;7.70;;;3.47;;
30553;SDS011;17335;50.720;7.452;2022-11-15T12:38:04;5.93;;;2.67;;
30553;SDS011;17335;50.720;7.452;2022-11-15T12:45:41;3.47;;;1.95;;
30553;SDS011;17335;50.720;7.452;2022-11-15T12:51:05;5.43;;;2.05;;
30553;SDS011;17335;50.720;7.452;2022-11-15T12:53:31;5.82;;;1.98;;
30553;SDS011;17335;50.720;7.452;2022-11-15T12:58:42;3.20;;;1.70;;
30553;SDS011;17335;50.720;7.452;2022-11-15T13:11:56;3.10;;;1.65;;
30553;SDS011;17335;50.720;7.452;2022-11-15T13:17:09;4.30;;;2.05;;
30553;SDS011;17335;50.720;7.452;2022-11-15T13:28:03;3.70;;;2.05;;
30553;SDS011;17335;50.720;7.452;2022-11-15T13:30:36;5.57;;;2.08;;
30553;SDS011;17335;50.720;7.452;2022-11-15T13:33:10;5.60;;;1.65;;
30553;SDS011;17335;50.720;7.452;2022-11-15T13:35:45;3.72;;;1.60;;
30553;SDS011;17335;50.720;7.452;2022-11-15T13:38:33;3.35;;;1.67;;
30553;SDS011;17335;50.720;7.452;2022-11-15T13:41:17;5.05;;;1.70;;
30553;SDS011;17335;50.720;7.452;2022-11-15T13:43:46;3.83;;;1.90;;
30553;SDS011;17335;50.720;7.452;2022-11-15T13:46:19;3.35;;;1.38;;
30553;SDS011;17335;50.720;7.452;2022-11-15T13:48:51;4.10;;;1.40;;
30553;SDS011;17335;50.720;7.452;2022-11-15T13:51:21;2.13;;;1.45;;
30553;SDS011;17335;50.720;7.452;2022-11-15T13:53:50;4.32;;;1.50;;
30553;SDS011;17335;50.720;7.452;2022-11-15T13:56:22;3.63;;;1.70;;
30553;SDS011;17335;50.720;7.452;2022-11-15T13:58:49;6.57;;;1.83;;
30553;SDS011;17335;50.720;7.452;2022-11-15T14:01:16;3.97;;;1.67;;
30553;SDS011;17335;50.720;7.452;2022-11-15T14:03:47;5.00;;;1.70;;
30553;SDS011;17335;50.720;7.452;2022-11-15T14:06:21;2.97;;;1.63;;
30553;SDS011;17335;50.720;7.452;2022-11-15T14:09:03;3.03;;;1.70;;
30553;SDS011;17335;50.720;7.452;2022-11-15T14:11:33;3.33;;;1.70;;
30553;SDS011;17335;50.720;7.452;2022-11-15T14:16:32;5.13;;;1.38;;
30553;SDS011;17335;50.720;7.452;2022-11-15T14:19:01;2.85;;;1.70;;
30553;SDS011;17335;50.720;7.452;2022-11-15T14:21:29;3.22;;;1.67;;
30553;SDS011;17335;50.720;7.452;2022-11-15T14:26:47;4.70;;;1.80;;
30553;SDS011;17335;50.720;7.452;2022-11-15T14:29:24;4.63;;;1.77;;
30553;SDS011;17335;50.720;7.452;2022-11-15T14:34:42;4.85;;;2.00;;
30553;SDS011;17335;50.720;7.452;2022-11-15T14:37:20;3.08;;;1.50;;
30553;SDS011;17335;50.720;7.452;2022-11-15T14:39:49;3.55;;;1.90;;
30553;SDS011;17335;50.720;7.452;2022-11-15T14:42:16;3.75;;;1.83;;
30553;SDS011;17335;50.720;7.452;2022-11-15T14:44:43;5.25;;;2.10;;
30553;SDS011;17335;50.720;7.452;2022-11-15T14:47:11;3.97;;;1.70;;
30553;SDS011;17335;50.720;7.452;2022-11-15T14:49:38;6.03;;;1.70;;
30553;SDS011;17335;50.720;7.452;2022-11-15T14:54:58;5.35;;;1.88;;
30553;SDS011;17335;50.720;7.452;2022-11-15T14:57:25;5.47;;;2.10;;
30553;SDS011;17335;50.720;7.452;2022-11-15T14:59:51;4.53;;;2.05;;
30553;SDS011;17335;50.720;7.452;2022-11-15T15:02:23;3.20;;;1.63;;
30553;SDS011;17335;50.720;7.452;2022-11-15T15:04:50;3.22;;;1.90;;
30553;SDS011;17335;50.720;7.452;2022-11-15T15:07:17;4.38;;;1.70;;
30553;SDS011;17335;50.720;7.452;2022-11-15T15:09:44;6.95;;;1.88;;
30553;SDS011;17335;50.720;7.452;2022-11-15T15:12:15;3.40;;;1.98;;
30553;SDS011;17335;50.720;7.452;2022-11-15T15:14:44;4.57;;;1.95;;
30553;SDS011;17335;50.720;7.452;2022-11-15T15:17:11;2.92;;;1.52;;
30553;SDS011;17335;50.720;7.452;2022-11-15T15:19:37;3.30;;;1.58;;
30553;SDS011;17335;50.720;7.452;2022-11-15T15:22:04;2.47;;;1.60;;
30553;SDS011;17335;50.720;7.452;2022-11-15T15:24:31;3.00;;;1.42;;
30553;SDS011;17335;50.720;7.452;2022-11-15T15:26:58;3.10;;;1.73;;
30553;SDS011;17335;50.720;7.452;2022-11-15T15:29:24;3.97;;;1.40;;
30553;SDS011;17335;50.720;7.452;2022-11-15T15:31:51;4.05;;;1.52;;
30553;SDS011;17335;50.720;7.452;2022-11-15T15:34:17;3.92;;;2.25;;
30553;SDS011;17335;50.720;7.452;2022-11-15T15:36:44;3.28;;;1.70;;
30553;SDS011;17335;50.720;7.452;2022-11-15T15:39:10;5.18;;;1.70;;
30553;SDS011;17335;50.720;7.452;2022-11-15T15:41:38;3.88;;;1.83;;
30553;SDS011;17335;50.720;7.452;2022-11-15T15:44:04;4.35;;;2.15;;
30553;SDS011;17335;50.720;7.452;2022-11-15T15:46:31;2.90;;;1.63;;
30553;SDS011;17335;50.720;7.452;2022-11-15T15:48:57;2.35;;;1.48;;
30553;SDS011;17335;50.720;7.452;2022-11-15T15:51:24;4.68;;;2.22;;
30553;SDS011;17335;50.720;7.452;2022-11-15T15:53:50;7.13;;;2.78;;
30553;SDS011;17335;50.720;7.452;2022-11-15T15:56:18;6.60;;;3.00;;
30553;SDS011;17335;50.720;7.452;2022-11-15T15:58:45;4.75;;;2.20;;
30553;SDS011;17335;50.720;7.452;2022-11-15T16:01:12;3.97;;;2.25;;
30553;SDS011;17335;50.720;7.452;2022-11-15T16:03:38;9.93;;;4.93;;
30553;SDS011;17335;50.720;7.452;2022-11-15T16:06:22;5.05;;;2.25;;
30553;SDS011;17335;50.720;7.452;2022-11-15T16:09:13;6.45;;;2.45;;
30553;SDS011;17335;50.720;7.452;2022-11-15T16:11:43;4.35;;;2.08;;
30553;SDS011;17335;50.720;7.452;2022-11-15T16:14:11;3.70;;;2.20;;
30553;SDS011;17335;50.720;7.452;2022-11-15T16:16:38;4.80;;;2.53;;
30553;SDS011;17335;50.720;7.452;2022-11-15T16:19:05;5.25;;;2.58;;
30553;SDS011;17335;50.720;7.452;2022-11-15T16:21:32;5.05;;;2.50;;
30553;SDS011;17335;50.720;7.452;2022-11-15T16:23:59;8.63;;;3.20;;
30553;SDS011;17335;50.720;7.452;2022-11-15T16:26:27;6.25;;;3.20;;
30553;SDS011;17335;50.720;7.452;2022-11-15T16:28:55;6.20;;;3.38;;
30553;SDS011;17335;50.720;7.452;2022-11-15T16:31:22;5.60;;;3.00;;
30553;SDS011;17335;50.720;7.452;2022-11-15T16:33:48;10.10;;;3.45;;
30553;SDS011;17335;50.720;7.452;2022-11-15T16:36:22;6.35;;;3.58;;
30553;SDS011;17335;50.720;7.452;2022-11-15T16:38:55;9.70;;;4.95;;
30553;SDS011;17335;50.720;7.452;2022-11-15T16:41:21;6.13;;;3.88;;
30553;SDS011;17335;50.720;7.452;2022-11-15T16:43:48;8.88;;;4.68;;
30553;SDS011;17335;50.720;7.452;2022-11-15T16:46:19;8.23;;;4.50;;
30553;SDS011;17335;50.720;7.452;2022-11-15T16:48:47;8.18;;;4.07;;
30553;SDS011;17335;50.720;7.452;2022-11-15T16:51:14;8.00;;;4.15;;
30553;SDS011;17335;50.720;7.452;2022-11-15T16:53:41;9.25;;;4.05;;
30553;SDS011;17335;50.720;7.452;2022-11-15T16:58:52;8.65;;;3.90;;
30553;SDS011;17335;50.720;7.452;2022-11-15T17:01:22;7.13;;;4.10;;
30553;SDS011;17335;50.720;7.452;2022-11-15T17:03:50;7.28;;;4.13;;
30553;SDS011;17335;50.720;7.452;2022-11-15T17:06:19;12.77;;;5.88;;
30553;SDS011;17335;50.720;7.452;2022-11-15T17:08:46;10.70;;;4.72;;